sensor_id;sensor_type;location;lat;lon;timestamp;pressure;altitude;pressure_sealevel;temperature;humidity
22938;BME280;11634;42.734;23.298;2022-08-19T00:00:36;95054.56;;;21.41;100.00
22938;BME280;11634;42.734;23.298;2022-08-19T00:03:03;95059.66;;;21.42;100.00
22938;BME280;11634;42.734;23.298;2022-08-19T00:05:30;95072.72;;;21.50;100.00
22938;BME280;11634;42.734;23.298;2022-08-19T00:07:57;95049.28;;;21.41;100.00
22938;BME280;11634;42.734;23.298;2022-08-19T00:10:23;95053.13;;;21.39;100.00
22938;BME280;11634;42.734;23.298;2022-08-19T00:12:50;95074.34;;;21.58;100.00
22938;BME280;11634;42.734;23.298;2022-08-19T00:15:18;95076.38;;;21.49;100.00
22938;BME280;11634;42.734;23.298;2022-08-19T00:17:46;95080.22;;;21.47;100.00
22938;BME280;11634;42.734;23.298;2022-08-19T00:20:15;95081.88;;;21.67;100.00
22938;BME280;11634;42.734;23.298;2022-08-19T00:22:43;95069.44;;;21.74;100.00
22938;BME280;11634;42.734;23.298;2022-08-19T00:25:10;95057.84;;;21.37;100.00
22938;BME280;11634;42.734;23.298;2022-08-19T00:27:36;95088.56;;;21.38;100.00
22938;BME280;11634;42.734;23.298;2022-08-19T00:30:04;95059.63;;;21.04;100.00
22938;BME280;11634;42.734;23.298;2022-08-19T00:32:30;95061.44;;;20.97;100.00
22938;BME280;11634;42.734;23.298;2022-08-19T00:34:55;95084.09;;;21.06;100.00
22938;BME280;11634;42.734;23.298;2022-08-19T00:37:23;95081.81;;;21.09;100.00
22938;BME280;11634;42.734;23.298;2022-08-19T00:39:51;95081.66;;;21.11;100.00
22938;BME280;11634;42.734;23.298;2022-08-19T00:42:17;95068.38;;;20.98;100.00
22938;BME280;11634;42.734;23.298;2022-08-19T00:44:43;95070.22;;;20.91;100.00
22938;BME280;11634;42.734;23.298;2022-08-19T00:47:09;95070.22;;;20.91;100.00
22938;BME280;11634;42.734;23.298;2022-08-19T00:49:52;95074.09;;;20.95;100.00
22938;BME280;11634;42.734;23.298;2022-08-19T00:52:22;95074.28;;;20.87;100.00
22938;BME280;11634;42.734;23.298;2022-08-19T00:54:51;95077.72;;;20.75;100.00
22938;BME280;11634;42.734;23.298;2022-08-19T00:57:22;95073.53;;;20.59;100.00
22938;BME280;11634;42.734;23.298;2022-08-19T00:59:52;95066.78;;;20.44;100.00
22938;BME280;11634;42.734;23.298;2022-08-19T01:02:21;95055.75;;;20.28;100.00
22938;BME280;11634;42.734;23.298;2022-08-19T01:04:46;95064.06;;;20.25;100.00
22938;BME280;11634;42.734;23.298;2022-08-19T01:07:12;95073.66;;;20.32;100.00
22938;BME280;11634;42.734;23.298;2022-08-19T01:09:38;95056.06;;;20.12;100.00
22938;BME280;11634;42.734;23.298;2022-08-19T01:12:04;95077.53;;;20.30;100.00
22938;BME280;11634;42.734;23.298;2022-08-19T01:14:30;95052.06;;;20.22;100.00
22938;BME280;11634;42.734;23.298;2022-08-19T01:16:56;95071.03;;;20.38;100.00
22938;BME280;11634;42.734;23.298;2022-08-19T01:19:36;95046.34;;;20.19;100.00
22938;BME280;11634;42.734;23.298;2022-08-19T01:22:11;95080.16;;;20.30;100.00
22938;BME280;11634;42.734;23.298;2022-08-19T01:24:37;95051.22;;;20.15;100.00
22938;BME280;11634;42.734;23.298;2022-08-19T01:27:07;95057.16;;;20.24;100.00
22938;BME280;11634;42.734;23.298;2022-08-19T01:29:33;95062.88;;;20.33;100.00
22938;BME280;11634;42.734;23.298;2022-08-19T01:32:00;95060.59;;;20.24;100.00
22938;BME280;11634;42.734;23.298;2022-08-19T01:34:26;95060.38;;;20.19;100.00
22938;BME280;11634;42.734;23.298;2022-08-19T01:36:52;95034.28;;;20.03;100.00
22938;BME280;11634;42.734;23.298;2022-08-19T01:39:23;95062.41;;;20.17;100.00
22938;BME280;11634;42.734;23.298;2022-08-19T01:41:49;95064.25;;;20.17;100.00
22938;BME280;11634;42.734;23.298;2022-08-19T01:44:16;95061.34;;;20.12;100.00
22938;BME280;11634;42.734;23.298;2022-08-19T01:46:47;95055.81;;;20.00;100.00
22938;BME280;11634;42.734;23.298;2022-08-19T01:49:13;95064.19;;;20.10;100.00
22938;BME280;11634;42.734;23.298;2022-08-19T01:51:38;95022.34;;;19.80;100.00
22938;BME280;11634;42.734;23.298;2022-08-19T01:54:04;95073.31;;;20.08;100.00
22938;BME280;11634;42.734;23.298;2022-08-19T01:56:30;95071.28;;;20.03;100.00
22938;BME280;11634;42.734;23.298;2022-08-19T01:59:04;95078.25;;;20.11;100.00
22938;BME280;11634;42.734;23.298;2022-08-19T02:01:33;95066.41;;;20.00;100.00
22938;BME280;11634;42.734;23.298;2022-08-19T02:03:59;95065.75;;;19.92;100.00
22938;BME280;11634;42.734;23.298;2022-08-19T02:06:26;95068.69;;;19.82;100.00
22938;BME280;11634;42.734;23.298;2022-08-19T02:08:52;95084.59;;;19.89;100.00
22938;BME280;11634;42.734;23.298;2022-08-19T02:11:21;95079.69;;;19.86;100.00
22938;BME280;11634;42.734;23.298;2022-08-19T02:13:47;95079.22;;;19.76;100.00
22938;BME280;11634;42.734;23.298;2022-08-19T02:16:15;95079.63;;;19.73;100.00
22938;BME280;11634;42.734;23.298;2022-08-19T02:18:41;95076.53;;;19.70;100.00
22938;BME280;11634;42.734;23.298;2022-08-19T02:21:07;95065.44;;;19.53;100.00
22938;BME280;11634;42.734;23.298;2022-08-19T02:23:32;95049.34;;;19.42;100.00
22938;BME280;11634;42.734;23.298;2022-08-19T02:25:58;95036.34;;;19.40;100.00
22938;BME280;11634;42.734;23.298;2022-08-19T02:28:23;95061.81;;;19.54;100.00
22938;BME280;11634;42.734;23.298;2022-08-19T02:30:49;95046.31;;;19.45;100.00
22938;BME280;11634;42.734;23.298;2022-08-19T02:33:15;95082.78;;;19.62;100.00
22938;BME280;11634;42.734;23.298;2022-08-19T02:35:42;95076.88;;;19.60;100.00
22938;BME280;11634;42.734;23.298;2022-08-19T02:38:08;95070.13;;;19.51;100.00
22938;BME280;11634;42.734;23.298;2022-08-19T02:40:55;95074.28;;;19.39;100.00
22938;BME280;11634;42.734;23.298;2022-08-19T02:43:23;95071.66;;;19.19;100.00
22938;BME280;11634;42.734;23.298;2022-08-19T02:45:49;95079.84;;;19.23;100.00
22938;BME280;11634;42.734;23.298;2022-08-19T02:48:17;95086.31;;;19.21;100.00
22938;BME280;11634;42.734;23.298;2022-08-19T02:50:44;95058.56;;;19.04;100.00
22938;BME280;11634;42.734;23.298;2022-08-19T02:53:11;95073.09;;;19.15;100.00
22938;BME280;11634;42.734;23.298;2022-08-19T02:55:43;95085.44;;;19.14;100.00
22938;BME280;11634;42.734;23.298;2022-08-19T02:58:08;95085.75;;;19.05;100.00
22938;BME280;11634;42.734;23.298;2022-08-19T03:00:34;95081.75;;;19.09;100.00
22938;BME280;11634;42.734;23.298;2022-08-19T03:02:59;95086.50;;;18.99;100.00
22938;BME280;11634;42.734;23.298;2022-08-19T03:05:25;95079.97;;;18.95;100.00
22938;BME280;11634;42.734;23.298;2022-08-19T03:07:52;95073.88;;;18.94;100.00
22938;BME280;11634;42.734;23.298;2022-08-19T03:10:17;95079.88;;;18.88;100.00
22938;BME280;11634;42.734;23.298;2022-08-19T03:12:43;95065.56;;;18.76;100.00
22938;BME280;11634;42.734;23.298;2022-08-19T03:15:10;95066.59;;;18.75;100.00
22938;BME280;11634;42.734;23.298;2022-08-19T03:17:36;95054.06;;;18.63;100.00
22938;BME280;11634;42.734;23.298;2022-08-19T03:20:02;95062.88;;;18.70;100.00
22938;BME280;11634;42.734;23.298;2022-08-19T03:22:28;95036.09;;;18.52;100.00
22938;BME280;11634;42.734;23.298;2022-08-19T03:24:56;95047.56;;;18.59;100.00
22938;BME280;11634;42.734;23.298;2022-08-19T03:27:22;95077.44;;;18.87;100.00
22938;BME280;11634;42.734;23.298;2022-08-19T03:29:47;95074.81;;;18.87;100.00
22938;BME280;11634;42.734;23.298;2022-08-19T03:32:13;95059.56;;;18.82;100.00
22938;BME280;11634;42.734;23.298;2022-08-19T03:34:39;95072.25;;;18.93;100.00
22938;BME280;11634;42.734;23.298;2022-08-19T03:37:10;95065.06;;;18.87;100.00
22938;BME280;11634;42.734;23.298;2022-08-19T03:39:40;95081.22;;;18.99;100.00
22938;BME280;11634;42.734;23.298;2022-08-19T03:42:07;95086.69;;;18.97;100.00
22938;BME280;11634;42.734;23.298;2022-08-19T03:44:33;95085.66;;;18.98;100.00
22938;BME280;11634;42.734;23.298;2022-08-19T03:46:59;95095.94;;;19.08;100.00
22938;BME280;11634;42.734;23.298;2022-08-19T03:49:27;95103.84;;;19.08;100.00
22938;BME280;11634;42.734;23.298;2022-08-19T03:51:55;95070.34;;;18.87;100.00
22938;BME280;11634;42.734;23.298;2022-08-19T03:54:23;95104.75;;;19.15;100.00
22938;BME280;11634;42.734;23.298;2022-08-19T03:56:51;95118.06;;;19.27;100.00
22938;BME280;11634;42.734;23.298;2022-08-19T03:59:27;95085.00;;;19.31;100.00
22938;BME280;11634;42.734;23.298;2022-08-19T04:01:55;95110.16;;;19.55;100.00
22938;BME280;11634;42.734;23.298;2022-08-19T04:04:21;95103.09;;;19.62;100.00
22938;BME280;11634;42.734;23.298;2022-08-19T04:06:47;95056.34;;;19.28;100.00
22938;BME280;11634;42.734;23.298;2022-08-19T04:09:12;95120.50;;;19.77;100.00
22938;BME280;11634;42.734;23.298;2022-08-19T04:11:45;95123.88;;;19.71;100.00
22938;BME280;11634;42.734;23.298;2022-08-19T04:14:16;95125.94;;;19.48;100.00
22938;BME280;11634;42.734;23.298;2022-08-19T04:16:43;95124.88;;;19.43;100.00
22938;BME280;11634;42.734;23.298;2022-08-19T04:19:10;95097.00;;;19.34;100.00
22938;BME280;11634;42.734;23.298;2022-08-19T04:21:36;95111.25;;;19.39;100.00
22938;BME280;11634;42.734;23.298;2022-08-19T04:24:02;95125.59;;;19.51;100.00
22938;BME280;11634;42.734;23.298;2022-08-19T04:26:32;95102.38;;;19.47;100.00
22938;BME280;11634;42.734;23.298;2022-08-19T04:29:00;95129.81;;;19.73;100.00
22938;BME280;11634;42.734;23.298;2022-08-19T04:31:29;95123.34;;;19.76;100.00
22938;BME280;11634;42.734;23.298;2022-08-19T04:33:56;95135.94;;;19.80;100.00
22938;BME280;11634;42.734;23.298;2022-08-19T04:36:28;95134.75;;;20.10;100.00
22938;BME280;11634;42.734;23.298;2022-08-19T04:39:02;95138.75;;;20.33;100.00
22938;BME280;11634;42.734;23.298;2022-08-19T04:41:28;95136.84;;;20.67;100.00
22938;BME280;11634;42.734;23.298;2022-08-19T04:44:13;95152.75;;;21.20;100.00
22938;BME280;11634;42.734;23.298;2022-08-19T04:46:39;95142.03;;;21.67;100.00
22938;BME280;11634;42.734;23.298;2022-08-19T04:49:06;95137.13;;;21.96;100.00
22938;BME280;11634;42.734;23.298;2022-08-19T04:51:32;95139.94;;;22.33;100.00
22938;BME280;11634;42.734;23.298;2022-08-19T04:53:59;95099.16;;;22.02;100.00
22938;BME280;11634;42.734;23.298;2022-08-19T04:56:26;95138.91;;;22.21;100.00
22938;BME280;11634;42.734;23.298;2022-08-19T04:58:54;95132.56;;;22.92;100.00
22938;BME280;11634;42.734;23.298;2022-08-19T05:01:23;95137.06;;;22.98;100.00
22938;BME280;11634;42.734;23.298;2022-08-19T05:03:49;95145.41;;;23.01;100.00
22938;BME280;11634;42.734;23.298;2022-08-19T05:06:20;95141.41;;;22.79;100.00
22938;BME280;11634;42.734;23.298;2022-08-19T05:08:46;95149.06;;;22.50;100.00
22938;BME280;11634;42.734;23.298;2022-08-19T05:11:27;95139.28;;;22.51;100.00
22938;BME280;11634;42.734;23.298;2022-08-19T05:13:54;95134.63;;;22.40;100.00
22938;BME280;11634;42.734;23.298;2022-08-19T05:16:21;95149.56;;;22.02;100.00
22938;BME280;11634;42.734;23.298;2022-08-19T05:18:47;95159.16;;;21.71;100.00
22938;BME280;11634;42.734;23.298;2022-08-19T05:21:32;95151.00;;;21.53;100.00
22938;BME280;11634;42.734;23.298;2022-08-19T05:24:19;95154.41;;;21.47;100.00
22938;BME280;11634;42.734;23.298;2022-08-19T05:26:47;95161.31;;;21.42;100.00
22938;BME280;11634;42.734;23.298;2022-08-19T05:29:14;95126.47;;;21.32;100.00
22938;BME280;11634;42.734;23.298;2022-08-19T05:31:41;95162.59;;;21.65;100.00
22938;BME280;11634;42.734;23.298;2022-08-19T05:34:06;95147.50;;;21.78;100.00
22938;BME280;11634;42.734;23.298;2022-08-19T05:36:40;95145.22;;;22.20;100.00
22938;BME280;11634;42.734;23.298;2022-08-19T05:39:07;95151.13;;;22.48;100.00
22938;BME280;11634;42.734;23.298;2022-08-19T05:41:34;95153.31;;;22.64;100.00
22938;BME280;11634;42.734;23.298;2022-08-19T05:44:04;95152.47;;;22.70;100.00
22938;BME280;11634;42.734;23.298;2022-08-19T05:46:35;95145.81;;;22.42;100.00
22938;BME280;11634;42.734;23.298;2022-08-19T05:49:04;95160.06;;;22.60;100.00
22938;BME280;11634;42.734;23.298;2022-08-19T05:51:31;95147.72;;;22.78;100.00
22938;BME280;11634;42.734;23.298;2022-08-19T05:53:58;95139.31;;;22.88;100.00
22938;BME280;11634;42.734;23.298;2022-08-19T05:56:23;95151.72;;;23.07;100.00
22938;BME280;11634;42.734;23.298;2022-08-19T05:58:51;95158.69;;;23.01;100.00
22938;BME280;11634;42.734;23.298;2022-08-19T06:01:20;95146.97;;;23.15;100.00
22938;BME280;11634;42.734;23.298;2022-08-19T06:03:46;95156.75;;;23.21;100.00
22938;BME280;11634;42.734;23.298;2022-08-19T06:06:15;95154.41;;;23.37;100.00
22938;BME280;11634;42.734;23.298;2022-08-19T06:08:41;95156.72;;;23.27;100.00
22938;BME280;11634;42.734;23.298;2022-08-19T06:13:42;95158.25;;;23.48;100.00
22938;BME280;11634;42.734;23.298;2022-08-19T06:16:08;95155.09;;;23.57;100.00
22938;BME280;11634;42.734;23.298;2022-08-19T06:18:33;95160.66;;;23.80;100.00
22938;BME280;11634;42.734;23.298;2022-08-19T06:21:01;95155.47;;;23.91;100.00
22938;BME280;11634;42.734;23.298;2022-08-19T06:23:30;95159.31;;;24.20;100.00
22938;BME280;11634;42.734;23.298;2022-08-19T06:25:56;95148.00;;;24.24;100.00
22938;BME280;11634;42.734;23.298;2022-08-19T06:28:21;95156.88;;;24.42;100.00
22938;BME280;11634;42.734;23.298;2022-08-19T06:30:49;95143.25;;;24.50;96.03
22938;BME280;11634;42.734;23.298;2022-08-19T06:33:15;95153.38;;;24.42;94.04
22938;BME280;11634;42.734;23.298;2022-08-19T06:35:41;95155.25;;;24.35;94.09
22938;BME280;11634;42.734;23.298;2022-08-19T06:38:08;95157.34;;;24.57;93.16
22938;BME280;11634;42.734;23.298;2022-08-19T06:40:35;95164.59;;;24.68;93.98
22938;BME280;11634;42.734;23.298;2022-08-19T06:43:00;95160.63;;;24.71;93.44
22938;BME280;11634;42.734;23.298;2022-08-19T06:45:28;95154.56;;;24.81;92.87
22938;BME280;11634;42.734;23.298;2022-08-19T06:47:53;95151.78;;;24.59;92.60
22938;BME280;11634;42.734;23.298;2022-08-19T06:50:23;95153.75;;;24.81;91.82
22938;BME280;11634;42.734;23.298;2022-08-19T06:52:48;95150.72;;;24.95;90.89
22938;BME280;11634;42.734;23.298;2022-08-19T06:55:14;95155.66;;;25.28;89.39
22938;BME280;11634;42.734;23.298;2022-08-19T06:57:41;95144.00;;;25.40;87.45
22938;BME280;11634;42.734;23.298;2022-08-19T07:00:08;95147.78;;;25.62;88.00
22938;BME280;11634;42.734;23.298;2022-08-19T07:02:43;95155.16;;;25.89;86.72
22938;BME280;11634;42.734;23.298;2022-08-19T07:05:09;95148.44;;;25.87;84.44
22938;BME280;11634;42.734;23.298;2022-08-19T07:07:35;95159.56;;;25.95;83.32
22938;BME280;11634;42.734;23.298;2022-08-19T07:10:01;95159.44;;;25.79;86.08
22938;BME280;11634;42.734;23.298;2022-08-19T07:12:29;95163.69;;;26.20;82.78
22938;BME280;11634;42.734;23.298;2022-08-19T07:14:58;95137.44;;;26.17;83.22
22938;BME280;11634;42.734;23.298;2022-08-19T07:17:24;95160.44;;;26.75;82.21
22938;BME280;11634;42.734;23.298;2022-08-19T07:19:49;95156.75;;;26.42;82.94
22938;BME280;11634;42.734;23.298;2022-08-19T07:22:15;95153.00;;;26.66;80.19
22938;BME280;11634;42.734;23.298;2022-08-19T07:24:41;95148.50;;;26.55;78.78
22938;BME280;11634;42.734;23.298;2022-08-19T07:27:06;95153.91;;;26.83;77.75
22938;BME280;11634;42.734;23.298;2022-08-19T07:29:34;95156.75;;;27.15;75.48
22938;BME280;11634;42.734;23.298;2022-08-19T07:32:01;95157.00;;;27.14;73.61
22938;BME280;11634;42.734;23.298;2022-08-19T07:34:28;95154.25;;;27.09;73.08
22938;BME280;11634;42.734;23.298;2022-08-19T07:36:54;95143.50;;;27.48;70.68
22938;BME280;11634;42.734;23.298;2022-08-19T07:39:26;95155.84;;;27.77;67.15
22938;BME280;11634;42.734;23.298;2022-08-19T07:41:52;95148.94;;;27.97;66.39
22938;BME280;11634;42.734;23.298;2022-08-19T07:44:20;95140.81;;;27.76;65.51
22938;BME280;11634;42.734;23.298;2022-08-19T07:46:49;95145.66;;;27.62;65.71
22938;BME280;11634;42.734;23.298;2022-08-19T07:49:16;95142.50;;;27.82;65.63
22938;BME280;11634;42.734;23.298;2022-08-19T07:51:46;95145.28;;;27.87;66.39
22938;BME280;11634;42.734;23.298;2022-08-19T07:54:13;95149.19;;;28.12;64.91
22938;BME280;11634;42.734;23.298;2022-08-19T07:56:39;95144.38;;;28.25;65.36
22938;BME280;11634;42.734;23.298;2022-08-19T07:59:05;95138.66;;;28.38;64.38
22938;BME280;11634;42.734;23.298;2022-08-19T08:01:30;95155.22;;;28.89;62.71
22938;BME280;11634;42.734;23.298;2022-08-19T08:03:57;95108.03;;;28.88;60.18
22938;BME280;11634;42.734;23.298;2022-08-19T08:06:43;95127.03;;;28.87;61.62
22938;BME280;11634;42.734;23.298;2022-08-19T08:09:40;95135.63;;;29.10;60.24
22938;BME280;11634;42.734;23.298;2022-08-19T08:12:29;95136.19;;;29.29;57.35
22938;BME280;11634;42.734;23.298;2022-08-19T08:15:00;95114.19;;;29.31;58.20
22938;BME280;11634;42.734;23.298;2022-08-19T08:17:31;95139.88;;;29.75;56.42
22938;BME280;11634;42.734;23.298;2022-08-19T08:19:57;95110.09;;;30.03;55.37
22938;BME280;11634;42.734;23.298;2022-08-19T08:22:23;95134.41;;;30.18;54.37
22938;BME280;11634;42.734;23.298;2022-08-19T08:25:16;95129.19;;;30.06;54.32
22938;BME280;11634;42.734;23.298;2022-08-19T08:27:44;95117.50;;;30.22;53.53
22938;BME280;11634;42.734;23.298;2022-08-19T08:30:14;95120.47;;;30.57;52.16
22938;BME280;11634;42.734;23.298;2022-08-19T08:32:40;95107.97;;;30.41;52.03
22938;BME280;11634;42.734;23.298;2022-08-19T08:35:08;95126.91;;;30.56;52.07
22938;BME280;11634;42.734;23.298;2022-08-19T08:37:35;95110.66;;;30.87;50.90
22938;BME280;11634;42.734;23.298;2022-08-19T08:40:31;95117.28;;;31.11;50.43
22938;BME280;11634;42.734;23.298;2022-08-19T08:43:07;95121.66;;;31.37;49.38
22938;BME280;11634;42.734;23.298;2022-08-19T08:45:47;95110.97;;;31.52;48.87
22938;BME280;11634;42.734;23.298;2022-08-19T08:48:36;95113.94;;;31.55;48.44
22938;BME280;11634;42.734;23.298;2022-08-19T08:51:07;95115.69;;;31.30;48.69
22938;BME280;11634;42.734;23.298;2022-08-19T08:53:34;95116.88;;;31.54;48.44
22938;BME280;11634;42.734;23.298;2022-08-19T08:56:03;95118.16;;;30.80;48.22
22938;BME280;11634;42.734;23.298;2022-08-19T08:58:36;95083.63;;;30.57;48.54
22938;BME280;11634;42.734;23.298;2022-08-19T09:01:10;95109.94;;;30.97;47.56
22938;BME280;11634;42.734;23.298;2022-08-19T09:03:37;95107.63;;;31.30;47.58
22938;BME280;11634;42.734;23.298;2022-08-19T09:08:57;95091.31;;;31.66;47.64
22938;BME280;11634;42.734;23.298;2022-08-19T09:11:34;95093.81;;;32.12;46.04
22938;BME280;11634;42.734;23.298;2022-08-19T09:14:20;95095.94;;;31.90;45.21
22938;BME280;11634;42.734;23.298;2022-08-19T09:16:48;95083.25;;;31.71;45.08
22938;BME280;11634;42.734;23.298;2022-08-19T09:19:14;95076.22;;;31.65;45.08
22938;BME280;11634;42.734;23.298;2022-08-19T09:21:43;95086.75;;;31.86;43.20
22938;BME280;11634;42.734;23.298;2022-08-19T09:24:09;95084.09;;;32.16;41.14
22938;BME280;11634;42.734;23.298;2022-08-19T09:26:34;95078.94;;;32.44;40.70
22938;BME280;11634;42.734;23.298;2022-08-19T09:29:02;95080.28;;;32.67;40.50
22938;BME280;11634;42.734;23.298;2022-08-19T09:31:31;95074.34;;;32.60;40.55
22938;BME280;11634;42.734;23.298;2022-08-19T09:33:58;95081.13;;;32.52;40.49
22938;BME280;11634;42.734;23.298;2022-08-19T09:36:27;95059.78;;;32.66;39.14
22938;BME280;11634;42.734;23.298;2022-08-19T09:38:55;95065.94;;;32.81;38.54
22938;BME280;11634;42.734;23.298;2022-08-19T09:41:23;95047.13;;;32.61;38.69
22938;BME280;11634;42.734;23.298;2022-08-19T09:43:51;95069.41;;;32.86;39.29
22938;BME280;11634;42.734;23.298;2022-08-19T09:46:18;95065.03;;;33.10;39.25
22938;BME280;11634;42.734;23.298;2022-08-19T09:48:47;95038.88;;;32.96;38.86
22938;BME280;11634;42.734;23.298;2022-08-19T09:51:16;95058.72;;;33.29;38.44
22938;BME280;11634;42.734;23.298;2022-08-19T09:53:46;95051.75;;;33.19;38.67
22938;BME280;11634;42.734;23.298;2022-08-19T09:56:12;95049.44;;;32.87;38.28
22938;BME280;11634;42.734;23.298;2022-08-19T09:58:39;95043.81;;;32.79;38.03
22938;BME280;11634;42.734;23.298;2022-08-19T10:01:06;94993.47;;;32.40;38.85
22938;BME280;11634;42.734;23.298;2022-08-19T10:03:34;95005.50;;;32.77;38.14
22938;BME280;11634;42.734;23.298;2022-08-19T10:06:02;95038.59;;;33.07;38.46
22938;BME280;11634;42.734;23.298;2022-08-19T10:08:32;95032.09;;;33.08;38.75
22938;BME280;11634;42.734;23.298;2022-08-19T10:10:59;95029.72;;;32.97;38.54
22938;BME280;11634;42.734;23.298;2022-08-19T10:13:28;95019.31;;;32.66;38.73
22938;BME280;11634;42.734;23.298;2022-08-19T10:15:55;95029.47;;;32.98;39.09
22938;BME280;11634;42.734;23.298;2022-08-19T10:18:23;95030.69;;;32.43;39.05
22938;BME280;11634;42.734;23.298;2022-08-19T10:20:50;95026.34;;;32.57;39.01
22938;BME280;11634;42.734;23.298;2022-08-19T10:23:19;95011.75;;;32.72;38.62
22938;BME280;11634;42.734;23.298;2022-08-19T10:25:45;95027.47;;;33.19;38.16
22938;BME280;11634;42.734;23.298;2022-08-19T10:28:11;95010.66;;;33.31;38.11
22938;BME280;11634;42.734;23.298;2022-08-19T10:30:40;95021.19;;;33.28;38.05
22938;BME280;11634;42.734;23.298;2022-08-19T10:33:07;94983.63;;;32.78;38.40
22938;BME280;11634;42.734;23.298;2022-08-19T10:35:33;95009.78;;;32.88;39.01
22938;BME280;11634;42.734;23.298;2022-08-19T10:37:58;94987.78;;;32.61;38.62
22938;BME280;11634;42.734;23.298;2022-08-19T10:40:28;95003.47;;;32.24;39.26
22938;BME280;11634;42.734;23.298;2022-08-19T10:42:54;95006.97;;;32.50;39.28
22938;BME280;11634;42.734;23.298;2022-08-19T10:45:21;94997.78;;;32.51;39.21
22938;BME280;11634;42.734;23.298;2022-08-19T10:47:52;95010.94;;;32.72;38.76
22938;BME280;11634;42.734;23.298;2022-08-19T10:50:18;94993.19;;;32.51;39.45
22938;BME280;11634;42.734;23.298;2022-08-19T10:53:05;95005.91;;;32.36;39.57
22938;BME280;11634;42.734;23.298;2022-08-19T10:55:31;94985.38;;;32.55;39.63
22938;BME280;11634;42.734;23.298;2022-08-19T10:58:18;95003.56;;;32.92;38.96
22938;BME280;11634;42.734;23.298;2022-08-19T11:00:53;94991.44;;;32.80;38.92
22938;BME280;11634;42.734;23.298;2022-08-19T11:03:26;94990.41;;;32.76;38.83
22938;BME280;11634;42.734;23.298;2022-08-19T11:06:07;94993.13;;;32.71;39.02
22938;BME280;11634;42.734;23.298;2022-08-19T11:08:35;94975.88;;;32.72;38.93
22938;BME280;11634;42.734;23.298;2022-08-19T11:11:04;95004.13;;;32.84;39.18
22938;BME280;11634;42.734;23.298;2022-08-19T11:13:32;94974.81;;;32.68;39.06
22938;BME280;11634;42.734;23.298;2022-08-19T11:16:03;95003.09;;;32.70;39.05
22938;BME280;11634;42.734;23.298;2022-08-19T11:18:29;94997.06;;;33.03;38.94
22938;BME280;11634;42.734;23.298;2022-08-19T11:21:05;94985.72;;;33.44;38.51
22938;BME280;11634;42.734;23.298;2022-08-19T11:23:31;94979.47;;;33.49;38.10
22938;BME280;11634;42.734;23.298;2022-08-19T11:25:56;94970.00;;;33.51;37.63
22938;BME280;11634;42.734;23.298;2022-08-19T11:28:23;94968.63;;;33.59;37.97
22938;BME280;11634;42.734;23.298;2022-08-19T11:30:48;94964.31;;;33.53;37.42
22938;BME280;11634;42.734;23.298;2022-08-19T11:33:17;94972.72;;;33.84;37.71
22938;BME280;11634;42.734;23.298;2022-08-19T11:35:42;94950.69;;;33.96;37.80
22938;BME280;11634;42.734;23.298;2022-08-19T11:38:08;94969.75;;;34.14;37.91
22938;BME280;11634;42.734;23.298;2022-08-19T11:40:33;94967.97;;;34.05;37.23
22938;BME280;11634;42.734;23.298;2022-08-19T11:42:59;94948.06;;;33.63;37.70
22938;BME280;11634;42.734;23.298;2022-08-19T11:45:26;94951.16;;;33.75;37.77
22938;BME280;11634;42.734;23.298;2022-08-19T11:47:53;94956.97;;;33.91;38.25
22938;BME280;11634;42.734;23.298;2022-08-19T11:50:19;94954.28;;;33.91;37.37
22938;BME280;11634;42.734;23.298;2022-08-19T11:52:45;94943.22;;;33.88;37.59
22938;BME280;11634;42.734;23.298;2022-08-19T11:55:12;94954.19;;;34.01;37.47
22938;BME280;11634;42.734;23.298;2022-08-19T11:57:38;94899.13;;;33.92;37.68
22938;BME280;11634;42.734;23.298;2022-08-19T12:00:07;94945.25;;;34.29;36.74
22938;BME280;11634;42.734;23.298;2022-08-19T12:02:33;94931.59;;;34.39;37.35
22938;BME280;11634;42.734;23.298;2022-08-19T12:04:59;94939.56;;;34.54;37.14
22938;BME280;11634;42.734;23.298;2022-08-19T12:07:27;94928.56;;;34.22;36.82
22938;BME280;11634;42.734;23.298;2022-08-19T12:09:52;94912.56;;;34.02;37.24
22938;BME280;11634;42.734;23.298;2022-08-19T12:12:18;94916.47;;;33.86;37.38
22938;BME280;11634;42.734;23.298;2022-08-19T12:14:44;94891.06;;;33.59;37.32
22938;BME280;11634;42.734;23.298;2022-08-19T12:17:11;94899.47;;;33.86;37.85
22938;BME280;11634;42.734;23.298;2022-08-19T12:19:37;94914.19;;;34.27;37.16
22938;BME280;11634;42.734;23.298;2022-08-19T12:22:02;94906.47;;;34.38;37.10
22938;BME280;11634;42.734;23.298;2022-08-19T12:24:31;94912.81;;;34.29;36.79
22938;BME280;11634;42.734;23.298;2022-08-19T12:26:58;94907.59;;;34.33;36.88
22938;BME280;11634;42.734;23.298;2022-08-19T12:29:24;94902.03;;;34.24;37.27
22938;BME280;11634;42.734;23.298;2022-08-19T12:31:55;94902.16;;;34.38;36.73
22938;BME280;11634;42.734;23.298;2022-08-19T12:34:28;94903.94;;;34.47;36.55
22938;BME280;11634;42.734;23.298;2022-08-19T12:36:57;94895.63;;;34.62;36.55
22938;BME280;11634;42.734;23.298;2022-08-19T12:39:23;94881.53;;;34.65;36.46
22938;BME280;11634;42.734;23.298;2022-08-19T12:41:49;94901.78;;;34.86;36.06
22938;BME280;11634;42.734;23.298;2022-08-19T12:44:15;94891.06;;;34.99;36.08
22938;BME280;11634;42.734;23.298;2022-08-19T12:46:40;94884.19;;;35.06;36.28
22938;BME280;11634;42.734;23.298;2022-08-19T12:49:06;94895.09;;;35.20;36.03
22938;BME280;11634;42.734;23.298;2022-08-19T12:51:31;94895.34;;;35.37;35.47
22938;BME280;11634;42.734;23.298;2022-08-19T12:53:57;94884.47;;;35.23;35.84
22938;BME280;11634;42.734;23.298;2022-08-19T12:56:22;94883.25;;;34.97;35.78